Time;durP1;ratioP1;P1;durP2;ratioP2;P2;SDS_P1;SDS_P2;PMS_P1;PMS_P2;Temp;Humidity;BMP_temperature;BMP_pressure;BME280_temperature;BME280_humidity;BME280_pressure;Samples;Min_cycle;Max_cycle;Signal;HPM_P1;HPM_P2
2024/02/23 00:02:14;;;;;;;;;;;;;;;6.64;94.96;100238.94;107854;1257;72624;-76
2024/02/23 00:04:42;;;;;;;;;;;;;;;7.11;91.98;100236.52;107796;1256;62035;-77
2024/02/23 00:07:08;;;;;;;;;;;;;;;7.18;90.20;100231.21;107941;1256;61970;-78
2024/02/23 00:09:35;;;;;;;;;;;;;;;6.67;92.37;100228.48;107914;1256;74441;-76
2024/02/23 00:12:02;;;;;;;;;;;;;;;6.50;94.59;100222.92;107992;1256;72423;-76
2024/02/23 00:14:30;;;;;;;;;;;;;;;6.45;95.64;100219.58;108012;1260;72756;-76
2024/02/23 00:16:58;;;;;;;;;;;;;;;6.42;96.39;100217.00;107963;1256;62603;-76
2024/02/23 00:19:25;;;;;;;;;;;;;;;6.39;97.13;100220.34;107953;1256;62057;-74
2024/02/23 00:21:52;;;;;;;;;;;;;;;6.37;97.72;100215.56;107929;1256;75491;-76
2024/02/23 00:24:22;;;;;;;;;;;;;;;6.37;98.29;100215.24;107664;1256;72431;-75
2024/02/23 00:26:50;;;;;;;;;;;;;;;6.36;98.74;100209.88;107953;1256;71256;-75
2024/02/23 00:29:18;;;;;;;;;;;;;;;6.34;99.09;100204.43;107800;1260;62403;-75
2024/02/23 00:31:45;;;;;;;;;;;;;;;6.32;99.47;100204.15;107933;1256;61939;-76
2024/02/23 00:34:13;;;;;;;;;;;;;;;6.31;99.86;100205.84;107980;1256;76503;-76
2024/02/23 00:36:42;;;;;;;;;;;;;;;6.29;99.99;100206.57;107901;1256;72512;-76
2024/02/23 00:39:08;;;;;;;;;;;;;;;6.28;100.00;100205.21;107886;1256;72695;-75
2024/02/23 00:41:35;;;;;;;;;;;;;;;6.27;100.00;100204.30;107683;1256;61957;-74
2024/02/23 00:44:04;;;;;;;;;;;;;;;6.26;100.00;100200.68;107943;1256;61903;-75
2024/02/23 00:46:31;;;;;;;;;;;;;;;6.26;100.00;100199.88;107947;1256;74425;-76
2024/02/23 00:48:57;;;;;;;;;;;;;;;6.26;100.00;100201.91;107910;1256;71538;-77
2024/02/23 00:51:24;;;;;;;;;;;;;;;6.26;100.00;100195.27;107886;1256;72491;-74
2024/02/23 00:53:52;;;;;;;;;;;;;;;6.24;100.00;100190.61;107943;1256;61971;-75
2024/02/23 00:56:18;;;;;;;;;;;;;;;6.23;100.00;100191.61;107905;1256;61942;-75
2024/02/23 00:58:45;;;;;;;;;;;;;;;6.21;100.00;100189.21;107970;1256;75325;-76
2024/02/23 01:01:12;;;;;;;;;;;;;;;6.18;100.00;100192.66;107960;1260;72645;-75
2024/02/23 01:03:39;;;;;;;;;;;;;;;6.15;100.00;100187.73;107920;1256;72779;-77
2024/02/23 01:06:06;;;;;;;;;;;;;;;6.14;100.00;100191.16;107978;1256;62041;-76
2024/02/23 01:08:34;;;;;;;;;;;;;;;6.13;100.00;100195.60;107945;1256;61961;-76
2024/02/23 01:11:01;;;;;;;;;;;;;;;6.13;100.00;100197.02;107912;1256;75331;-76
2024/02/23 01:13:28;;;;;;;;;;;;;;;6.14;100.00;100191.80;107923;1256;72811;-76
2024/02/23 01:15:55;;;;;;;;;;;;;;;6.15;100.00;100193.45;107923;1256;72479;-77
2024/02/23 01:18:21;;;;;;;;;;;;;;;6.15;100.00;100198.60;107631;1256;61346;-75
2024/02/23 01:20:48;;;;;;;;;;;;;;;6.14;100.00;100198.37;107916;1256;62111;-76
2024/02/23 01:23:15;;;;;;;;;;;;;;;6.12;100.00;100201.64;107914;1256;74345;-76
2024/02/23 01:25:42;;;;;;;;;;;;;;;6.10;100.00;100193.59;107880;1256;71177;-75
2024/02/23 01:28:08;;;;;;;;;;;;;;;6.10;100.00;100202.13;107935;1256;71883;-77
2024/02/23 01:30:35;;;;;;;;;;;;;;;6.09;100.00;100198.23;107957;1256;62057;-77
2024/02/23 01:33:04;;;;;;;;;;;;;;;6.08;100.00;100194.45;107944;1256;62042;-77
2024/02/23 01:35:31;;;;;;;;;;;;;;;6.09;100.00;100195.26;107960;1256;75552;-76
2024/02/23 01:37:58;;;;;;;;;;;;;;;6.09;100.00;100189.39;107928;1256;72484;-77
2024/02/23 01:40:26;;;;;;;;;;;;;;;6.10;100.00;100184.83;107917;1261;72633;-76
2024/02/23 01:43:03;;;;;;;;;;;;;;;6.09;100.00;100183.07;107981;1256;61909;-76
2024/02/23 01:45:32;;;;;;;;;;;;;;;6.07;100.00;100181.48;107985;1256;62161;-77
2024/02/23 01:47:59;;;;;;;;;;;;;;;6.05;100.00;100176.89;107916;1256;75327;-77
2024/02/23 01:50:25;;;;;;;;;;;;;;;6.05;100.00;100178.31;107907;1257;72925;-77
2024/02/23 01:52:52;;;;;;;;;;;;;;;6.06;100.00;100173.29;107819;1256;71171;-76
2024/02/23 01:55:20;;;;;;;;;;;;;;;6.05;100.00;100172.48;107951;1257;62129;-76
2024/02/23 01:57:48;;;;;;;;;;;;;;;6.04;100.00;100175.27;107753;1256;61943;-76
2024/02/23 02:00:17;;;;;;;;;;;;;;;6.03;100.00;100176.79;107938;1256;75561;-76
2024/02/23 02:02:51;;;;;;;;;;;;;;;6.02;100.00;100175.45;107805;1256;73706;-76
2024/02/23 02:05:18;;;;;;;;;;;;;;;6.02;100.00;100177.26;107979;1256;72962;-76
2024/02/23 02:07:45;;;;;;;;;;;;;;;6.02;100.00;100175.98;108027;1256;62024;-76
2024/02/23 02:10:11;;;;;;;;;;;;;;;6.03;100.00;100173.94;107719;1262;61939;-76
2024/02/23 02:12:39;;;;;;;;;;;;;;;6.03;100.00;100175.90;107777;1257;75435;-76
2024/02/23 02:15:06;;;;;;;;;;;;;;;6.03;100.00;100174.05;107917;1256;72762;-77
2024/02/23 02:17:33;;;;;;;;;;;;;;;6.05;100.00;100169.20;107936;1256;72668;-75
2024/02/23 02:20:04;;;;;;;;;;;;;;;6.07;100.00;100165.52;107924;1256;61901;-75
2024/02/23 02:22:32;;;;;;;;;;;;;;;6.09;100.00;100166.63;107962;1260;61896;-75
2024/02/23 02:24:59;;;;;;;;;;;;;;;6.09;100.00;100166.09;107720;1259;74298;-75
2024/02/23 02:27:25;;;;;;;;;;;;;;;6.08;100.00;100164.96;107792;1257;72937;-76
2024/02/23 02:29:53;;;;;;;;;;;;;;;6.08;100.00;100167.77;107857;1260;72442;-77
2024/02/23 02:32:20;;;;;;;;;;;;;;;6.08;100.00;100165.48;107901;1256;62061;-76
2024/02/23 02:34:47;;;;;;;;;;;;;;;6.07;100.00;100161.44;107998;1256;62006;-75
2024/02/23 02:37:14;;;;;;;;;;;;;;;6.07;100.00;100163.39;107962;1257;73931;-77
2024/02/23 02:39:41;;;;;;;;;;;;;;;6.06;100.00;100159.30;107965;1256;72593;-75
2024/02/23 02:42:09;;;;;;;;;;;;;;;6.06;100.00;100160.11;107896;1257;71008;-75
2024/02/23 02:44:36;;;;;;;;;;;;;;;6.08;100.00;100155.83;108007;1256;61920;-77
2024/02/23 02:47:02;;;;;;;;;;;;;;;6.09;100.00;100156.18;107961;1256;62047;-76
2024/02/23 02:49:29;;;;;;;;;;;;;;;6.10;100.00;100157.84;107867;1256;75453;-76
2024/02/23 02:51:56;;;;;;;;;;;;;;;6.10;100.00;100156.89;108365;1256;73036;-75
2024/02/23 02:54:23;;;;;;;;;;;;;;;6.10;100.00;100157.90;108583;1256;71277;-74
2024/02/23 02:56:50;;;;;;;;;;;;;;;6.10;100.00;100153.38;108532;1256;60064;-75
2024/02/23 02:59:20;;;;;;;;;;;;;;;6.05;100.00;100150.63;108216;1256;61961;-76
2024/02/23 03:01:47;;;;;;;;;;;;;;;6.04;100.00;100149.93;107801;1256;75272;-76
2024/02/23 03:04:13;;;;;;;;;;;;;;;6.03;100.00;100151.94;108186;1256;71243;-76
2024/02/23 03:06:40;;;;;;;;;;;;;;;6.07;100.00;100156.66;107965;1259;72569;-76
2024/02/23 03:09:07;;;;;;;;;;;;;;;6.08;100.00;100159.77;107920;1256;62006;-77
2024/02/23 03:11:34;;;;;;;;;;;;;;;6.02;100.00;100162.20;107962;1256;61920;-76
2024/02/23 03:14:01;;;;;;;;;;;;;;;5.99;100.00;100163.25;107925;1256;75237;-76
2024/02/23 03:16:31;;;;;;;;;;;;;;;5.97;100.00;100164.38;108058;1256;72729;-76
2024/02/23 03:18:59;;;;;;;;;;;;;;;5.96;100.00;100170.15;107901;1256;71814;-76
2024/02/23 03:21:26;;;;;;;;;;;;;;;5.98;100.00;100171.71;107961;1256;60812;-77
2024/02/23 03:23:52;;;;;;;;;;;;;;;5.94;100.00;100165.96;107958;1257;62021;-77
2024/02/23 03:26:20;;;;;;;;;;;;;;;5.93;100.00;100162.02;107982;1256;74137;-76
2024/02/23 03:28:48;;;;;;;;;;;;;;;5.92;100.00;100166.73;107921;1256;72719;-76
2024/02/23 03:31:15;;;;;;;;;;;;;;;5.92;100.00;100165.77;107961;1257;72689;-77
2024/02/23 03:33:42;;;;;;;;;;;;;;;5.87;100.00;100168.88;107966;1256;62056;-76
2024/02/23 03:36:09;;;;;;;;;;;;;;;5.86;100.00;100171.18;107958;1256;62068;-77
2024/02/23 03:38:36;;;;;;;;;;;;;;;5.84;100.00;100169.98;107965;1256;75517;-76
2024/02/23 03:41:03;;;;;;;;;;;;;;;5.85;100.00;100168.15;107954;1260;70404;-76
2024/02/23 03:43:30;;;;;;;;;;;;;;;5.79;100.00;100167.65;107901;1256;72730;-76
2024/02/23 03:46:00;;;;;;;;;;;;;;;5.76;100.00;100169.83;107856;1257;62057;-76
2024/02/23 03:48:26;;;;;;;;;;;;;;;5.74;100.00;100165.96;107946;1256;61948;-76
2024/02/23 03:50:54;;;;;;;;;;;;;;;5.73;100.00;100164.19;107970;1256;72927;-79
2024/02/23 03:53:22;;;;;;;;;;;;;;;5.73;100.00;100160.17;108020;1260;71525;-78
2024/02/23 03:55:49;;;;;;;;;;;;;;;5.71;100.00;100163.09;107837;1257;72784;-76
2024/02/23 03:58:15;;;;;;;;;;;;;;;5.69;100.00;100166.22;107922;1256;61364;-75
2024/02/23 04:00:43;;;;;;;;;;;;;;;5.68;100.00;100160.33;108024;1256;61957;-77
2024/02/23 04:03:10;;;;;;;;;;;;;;;5.67;100.00;100160.36;107943;1257;74644;-76
2024/02/23 04:05:38;;;;;;;;;;;;;;;5.68;100.00;100158.27;107910;1256;72565;-77
2024/02/23 04:08:05;;;;;;;;;;;;;;;5.66;100.00;100156.86;107992;1256;71919;-77
2024/02/23 04:10:32;;;;;;;;;;;;;;;5.64;100.00;100157.61;107940;1256;62057;-76
2024/02/23 04:13:00;;;;;;;;;;;;;;;5.61;100.00;100156.01;107865;1260;62030;-77
2024/02/23 04:15:27;;;;;;;;;;;;;;;5.58;100.00;100155.52;107912;1256;75923;-76
2024/02/23 04:17:53;;;;;;;;;;;;;;;5.55;100.00;100154.13;107923;1256;71303;-76
2024/02/23 04:20:20;;;;;;;;;;;;;;;5.53;100.00;100154.89;107899;1257;71347;-78
2024/02/23 04:22:47;;;;;;;;;;;;;;;5.49;100.00;100153.05;107950;1256;59786;-76
2024/02/23 04:25:16;;;;;;;;;;;;;;;5.44;100.00;100151.09;107745;1256;61910;-75
2024/02/23 04:27:43;;;;;;;;;;;;;;;5.42;100.00;100154.80;107884;1256;75602;-76
2024/02/23 04:30:10;;;;;;;;;;;;;;;5.39;100.00;100154.80;107924;1256;72765;-76
2024/02/23 04:32:38;;;;;;;;;;;;;;;5.38;100.00;100152.98;108028;1256;72699;-76
2024/02/23 04:35:05;;;;;;;;;;;;;;;5.37;100.00;100159.86;107934;1256;62447;-76
2024/02/23 04:37:33;;;;;;;;;;;;;;;5.37;100.00;100154.45;107761;1259;62075;-76
2024/02/23 04:40:05;;;;;;;;;;;;;;;5.36;100.00;100159.89;107889;1260;75232;-76
2024/02/23 04:42:32;;;;;;;;;;;;;;;5.35;100.00;100161.81;107988;1256;73348;-76
2024/02/23 04:44:59;;;;;;;;;;;;;;;5.34;100.00;100167.04;107980;1256;72941;-75
2024/02/23 04:47:25;;;;;;;;;;;;;;;5.33;100.00;100170.24;107691;1259;62023;-77
2024/02/23 04:49:52;;;;;;;;;;;;;;;5.33;100.00;100176.92;107884;1257;61935;-78
2024/02/23 04:52:20;;;;;;;;;;;;;;;5.33;100.00;100180.23;107861;1256;75310;-77
2024/02/23 04:54:46;;;;;;;;;;;;;;;5.34;100.00;100181.71;107921;1257;72740;-77
2024/02/23 04:57:14;;;;;;;;;;;;;;;5.35;100.00;100186.87;107960;1260;72054;-77
2024/02/23 04:59:40;;;;;;;;;;;;;;;5.36;100.00;100190.34;107970;1257;62063;-77
2024/02/23 05:02:09;;;;;;;;;;;;;;;5.38;100.00;100191.66;107720;1257;62287;-76
2024/02/23 05:04:36;;;;;;;;;;;;;;;5.42;100.00;100193.27;107979;1260;74381;-76
2024/02/23 05:07:03;;;;;;;;;;;;;;;5.45;100.00;100191.41;108014;1257;71231;-77
2024/02/23 05:09:30;;;;;;;;;;;;;;;5.47;100.00;100187.71;107949;1257;70395;-76
2024/02/23 05:11:56;;;;;;;;;;;;;;;5.50;100.00;100196.46;107927;1256;62021;-77
2024/02/23 05:14:24;;;;;;;;;;;;;;;5.55;100.00;100198.26;107733;1256;61916;-76
2024/02/23 05:16:52;;;;;;;;;;;;;;;5.58;100.00;100198.80;107976;1260;76324;-76
2024/02/23 05:19:24;;;;;;;;;;;;;;;5.61;100.00;100203.27;107968;1257;72630;-76
2024/02/23 05:21:55;;;;;;;;;;;;;;;5.64;100.00;100200.52;107902;1260;72644;-75
2024/02/23 05:24:37;;;;;;;;;;;;;;;5.67;100.00;100201.91;107765;1262;62025;-75
2024/02/23 05:27:20;;;;;;;;;;;;;;;5.72;100.00;100202.08;107939;1257;61959;-76
2024/02/23 05:29:58;;;;;;;;;;;;;;;5.77;100.00;100198.20;107906;1260;75651;-76
2024/02/23 05:32:37;;;;;;;;;;;;;;;5.80;100.00;100207.18;107962;1257;71561;-77
2024/02/23 05:35:20;;;;;;;;;;;;;;;5.84;100.00;100211.96;107736;1256;72743;-76
2024/02/23 05:38:00;;;;;;;;;;;;;;;5.87;100.00;100220.25;107989;1257;62164;-76
2024/02/23 05:40:35;;;;;;;;;;;;;;;5.90;100.00;100223.11;107995;1258;62041;-77
2024/02/23 05:43:18;;;;;;;;;;;;;;;5.92;100.00;100230.87;108004;1257;74565;-77
2024/02/23 05:45:58;;;;;;;;;;;;;;;5.94;100.00;100231.33;107975;1260;74086;-76
2024/02/23 05:48:34;;;;;;;;;;;;;;;5.97;100.00;100232.13;107852;1256;72926;-76
2024/02/23 05:51:02;;;;;;;;;;;;;;;6.00;100.00;100232.52;107971;1257;62066;-77
2024/02/23 05:53:32;;;;;;;;;;;;;;;6.02;100.00;100225.66;107990;1256;61910;-76
2024/02/23 05:55:59;;;;;;;;;;;;;;;6.02;100.00;100226.19;108085;1259;74212;-76
2024/02/23 05:58:25;;;;;;;;;;;;;;;6.04;100.00;100231.54;108024;1256;72741;-77
2024/02/23 06:00:53;;;;;;;;;;;;;;;6.05;100.00;100228.86;108057;1257;72636;-76
2024/02/23 06:03:20;;;;;;;;;;;;;;;6.07;100.00;100233.72;108071;1257;61655;-76
2024/02/23 06:05:47;;;;;;;;;;;;;;;6.09;100.00;100235.78;108022;1260;61898;-77
2024/02/23 06:08:14;;;;;;;;;;;;;;;6.10;100.00;100233.94;107991;1260;75496;-76
2024/02/23 06:10:42;;;;;;;;;;;;;;;6.11;100.00;100231.35;107740;1256;72542;-75
2024/02/23 06:13:10;;;;;;;;;;;;;;;6.12;100.00;100231.88;107997;1257;73155;-76
2024/02/23 06:15:38;;;;;;;;;;;;;;;6.13;100.00;100233.79;107982;1258;62092;-77
2024/02/23 06:18:05;;;;;;;;;;;;;;;6.12;100.00;100234.41;107976;1259;62027;-76
2024/02/23 06:20:32;;;;;;;;;;;;;;;6.13;100.00;100238.88;107945;1258;73945;-77
2024/02/23 06:22:59;;;;;;;;;;;;;;;6.14;100.00;100246.42;107963;1257;72820;-77
2024/02/23 06:25:26;;;;;;;;;;;;;;;6.16;100.00;100248.39;107963;1257;72629;-77
2024/02/23 06:27:54;;;;;;;;;;;;;;;6.19;100.00;100249.71;107990;1257;61961;-77
2024/02/23 06:30:20;;;;;;;;;;;;;;;6.25;100.00;100254.75;107983;1257;61266;-77
2024/02/23 06:32:48;;;;;;;;;;;;;;;6.29;100.00;100258.48;107939;1257;75514;-76
2024/02/23 06:35:15;;;;;;;;;;;;;;;6.34;100.00;100260.08;107963;1260;71448;-77
2024/02/23 06:37:42;;;;;;;;;;;;;;;6.37;100.00;100261.34;107995;1260;71974;-76
2024/02/23 06:40:09;;;;;;;;;;;;;;;6.41;100.00;100256.85;108003;1260;61951;-77
2024/02/23 06:42:37;;;;;;;;;;;;;;;6.45;100.00;100254.44;107970;1260;60714;-77
2024/02/23 06:45:04;;;;;;;;;;;;;;;6.48;100.00;100254.13;107967;1257;75270;-77
2024/02/23 06:47:32;;;;;;;;;;;;;;;6.51;100.00;100257.21;107988;1260;72888;-77
2024/02/23 06:49:59;;;;;;;;;;;;;;;6.56;100.00;100260.48;109186;1257;72744;-77
2024/02/23 06:52:26;;;;;;;;;;;;;;;6.60;100.00;100262.05;109152;1260;59700;-78
2024/02/23 06:54:53;;;;;;;;;;;;;;;6.62;100.00;100264.16;109213;1260;60018;-76
2024/02/23 06:57:20;;;;;;;;;;;;;;;6.63;100.00;100262.63;109187;1257;75451;-77
2024/02/23 06:59:46;;;;;;;;;;;;;;;6.65;100.00;100257.73;109229;1257;74803;-76
2024/02/23 07:02:16;;;;;;;;;;;;;;;6.66;100.00;100250.11;109186;1256;72660;-76
2024/02/23 07:04:43;;;;;;;;;;;;;;;6.67;100.00;100246.98;109144;1257;63191;-75
2024/02/23 07:07:11;;;;;;;;;;;;;;;6.68;100.00;100240.34;109205;1257;60066;-77
2024/02/23 07:09:38;;;;;;;;;;;;;;;6.71;100.00;100239.27;109060;1259;75322;-77
2024/02/23 07:14:37;;;;;;;;;;;;;;;6.82;100.00;100236.11;104976;1293;598958;-66
2024/02/23 07:17:04;;;;;;;;;;;;;;;6.86;100.00;100246.20;107362;1267;59429;-65
2024/02/23 07:19:32;;;;;;;;;;;;;;;6.89;100.00;100245.99;107379;1267;62035;-66
2024/02/23 07:22:00;;;;;;;;;;;;;;;6.94;100.00;100244.86;107325;1267;73903;-66
2024/02/23 07:24:28;;;;;;;;;;;;;;;7.00;100.00;100247.13;107415;1267;72695;-67
2024/02/23 07:26:55;;;;;;;;;;;;;;;7.04;100.00;100248.27;107272;1267;72812;-66
2024/02/23 07:29:23;;;;;;;;;;;;;;;7.06;100.00;100252.70;107264;1263;205822;-66
2024/02/23 07:31:51;;;;;;;;;;;;;;;7.09;100.00;100263.69;107568;1260;60052;-66
2024/02/23 07:34:18;;;;;;;;;;;;;;;7.14;100.00;100266.48;108199;1255;73190;-64
2024/02/23 07:36:46;;;;;;;;;;;;;;;7.19;100.00;100262.67;108012;1254;72752;-66
2024/02/23 07:39:14;;;;;;;;;;;;;;;7.22;100.00;100267.98;107952;1254;73183;-65
2024/02/23 07:41:41;;;;;;;;;;;;;;;7.24;100.00;100266.96;108001;1254;61848;-67
2024/02/23 07:44:09;;;;;;;;;;;;;;;7.27;100.00;100264.89;108095;1254;59496;-65
2024/02/23 07:46:37;;;;;;;;;;;;;;;7.29;100.00;100267.04;108063;1252;72567;-66
2024/02/23 07:49:06;;;;;;;;;;;;;;;7.32;100.00;100268.83;108251;1254;75303;-67
2024/02/23 07:51:33;;;;;;;;;;;;;;;7.35;100.00;100273.19;108181;1254;72146;-65
2024/02/23 07:54:02;;;;;;;;;;;;;;;7.38;100.00;100273.02;108107;1253;61838;-67
2024/02/23 07:56:30;;;;;;;;;;;;;;;7.41;100.00;100275.45;108277;1254;60199;-65
2024/02/23 07:58:58;;;;;;;;;;;;;;;7.41;100.00;100278.20;108200;1254;73827;-65
2024/02/23 08:01:26;;;;;;;;;;;;;;;7.43;100.00;100278.61;108100;1254;75108;-66
2024/02/23 08:03:53;;;;;;;;;;;;;;;7.46;100.00;100283.29;108150;1254;74845;-66
2024/02/23 08:06:21;;;;;;;;;;;;;;;7.47;100.00;100287.26;108194;1253;63963;-65
2024/02/23 08:08:49;;;;;;;;;;;;;;;7.47;100.00;100282.15;108123;1253;60268;-65
2024/02/23 08:11:17;;;;;;;;;;;;;;;7.44;100.00;100286.88;108203;1252;75258;-65
2024/02/23 08:13:44;;;;;;;;;;;;;;;7.44;100.00;100289.76;108166;1253;75006;-64
2024/02/23 08:16:12;;;;;;;;;;;;;;;7.45;100.00;100294.59;108132;1253;72978;-65
2024/02/23 08:18:40;;;;;;;;;;;;;;;7.45;100.00;100299.13;108188;1253;63152;-65
2024/02/23 08:21:08;;;;;;;;;;;;;;;7.48;100.00;100295.45;108258;1252;60282;-65
2024/02/23 08:23:36;;;;;;;;;;;;;;;7.50;100.00;100294.05;108163;1253;75259;-65
2024/02/23 08:26:04;;;;;;;;;;;;;;;7.54;100.00;100293.52;108131;1253;73151;-66
2024/02/23 08:28:31;;;;;;;;;;;;;;;7.56;100.00;100295.70;108150;1254;72159;-65
2024/02/23 08:31:00;;;;;;;;;;;;;;;7.57;100.00;100300.30;108011;1254;61158;-68
2024/02/23 08:33:28;;;;;;;;;;;;;;;7.59;100.00;100301.35;108025;1254;62108;-66
2024/02/23 08:35:55;;;;;;;;;;;;;;;7.62;100.00;100304.84;108433;1255;74429;-65
2024/02/23 08:38:23;;;;;;;;;;;;;;;7.65;100.00;100305.09;108021;1254;71080;-65
2024/02/23 08:40:51;;;;;;;;;;;;;;;7.66;100.00;100303.08;108065;1253;75081;-66
2024/02/23 08:43:19;;;;;;;;;;;;;;;7.65;100.00;100301.38;108136;1257;61025;-65
2024/02/23 08:45:48;;;;;;;;;;;;;;;7.63;100.00;100307.45;108015;1254;60197;-68
2024/02/23 08:48:16;;;;;;;;;;;;;;;7.63;100.00;100311.19;107956;1254;73686;-65
2024/02/23 08:50:44;;;;;;;;;;;;;;;7.63;100.00;100305.29;107959;1254;72569;-66
2024/02/23 08:53:11;;;;;;;;;;;;;;;7.64;100.00;100307.73;107786;1254;74610;-67
2024/02/23 08:55:39;;;;;;;;;;;;;;;7.66;100.00;100303.52;107887;1254;64009;-65
2024/02/23 08:58:07;;;;;;;;;;;;;;;7.68;100.00;100310.52;108060;1254;60915;-66
2024/02/23 09:00:36;;;;;;;;;;;;;;;7.72;100.00;100313.56;108153;1253;72088;-66
2024/02/23 09:03:05;;;;;;;;;;;;;;;7.77;100.00;100312.17;108132;1253;74861;-66
2024/02/23 09:05:33;;;;;;;;;;;;;;;7.81;100.00;100316.92;108149;1254;73899;-66
2024/02/23 09:08:00;;;;;;;;;;;;;;;7.82;100.00;100314.48;108094;1255;61315;-66
2024/02/23 09:10:28;;;;;;;;;;;;;;;7.81;100.00;100314.85;108070;1254;60436;-65
2024/02/23 09:12:56;;;;;;;;;;;;;;;7.80;100.00;100317.22;107968;1254;73211;-66
2024/02/23 09:15:23;;;;;;;;;;;;;;;7.79;100.00;100321.27;107965;1253;75010;-66
2024/02/23 09:17:51;;;;;;;;;;;;;;;7.78;100.00;100324.44;108013;1254;74915;-65
2024/02/23 09:20:19;;;;;;;;;;;;;;;7.79;100.00;100326.14;108000;1260;61751;-69
2024/02/23 09:22:47;;;;;;;;;;;;;;;7.79;100.00;100331.39;108203;1253;59827;-69
2024/02/23 09:25:14;;;;;;;;;;;;;;;7.78;100.00;100332.04;108135;1253;73520;-68
2024/02/23 09:27:46;;;;;;;;;;;;;;;7.77;100.00;100329.16;108166;1253;74990;-67
2024/02/23 09:30:14;;;;;;;;;;;;;;;7.75;100.00;100331.30;108133;1256;74891;-67
2024/02/23 09:32:44;;;;;;;;;;;;;;;7.71;100.00;100326.93;108054;1254;63679;-63
2024/02/23 09:35:12;;;;;;;;;;;;;;;7.69;100.00;100326.36;108119;1253;59908;-67
2024/02/23 09:37:41;;;;;;;;;;;;;;;7.68;100.00;100329.77;108052;1258;73109;-67
2024/02/23 09:40:22;;;;;;;;;;;;;;;7.70;100.00;100333.20;108075;1254;72618;-65
2024/02/23 09:43:03;;;;;;;;;;;;;;;7.73;100.00;100333.50;108260;1254;73660;-65
2024/02/23 09:45:41;;;;;;;;;;;;;;;7.76;100.00;100341.20;108009;1254;64075;-66
2024/02/23 09:48:18;;;;;;;;;;;;;;;7.80;100.00;100342.79;108081;1253;60545;-66
2024/02/23 09:50:53;;;;;;;;;;;;;;;7.81;100.00;100345.38;108191;1253;74909;-66
2024/02/23 09:53:21;;;;;;;;;;;;;;;7.82;100.00;100342.61;108030;1253;73544;-65
2024/02/23 09:55:49;;;;;;;;;;;;;;;7.82;100.00;100342.24;108055;1254;74819;-65
2024/02/23 09:58:17;;;;;;;;;;;;;;;7.82;100.00;100342.52;107951;1254;59691;-67
2024/02/23 10:00:45;;;;;;;;;;;;;;;7.84;100.00;100341.11;107973;1254;59492;-66
2024/02/23 10:03:12;;;;;;;;;;;;;;;7.86;100.00;100341.52;108044;1253;75260;-65
2024/02/23 10:05:40;;;;;;;;;;;;;;;7.90;100.00;100339.60;108080;1253;71615;-66
2024/02/23 10:08:09;;;;;;;;;;;;;;;7.93;100.00;100337.63;107994;1254;74917;-66
2024/02/23 10:10:37;;;;;;;;;;;;;;;7.97;100.00;100341.88;107965;1254;62162;-67
2024/02/23 10:13:06;;;;;;;;;;;;;;;8.02;100.00;100339.71;108063;1254;59728;-64
2024/02/23 10:15:34;;;;;;;;;;;;;;;8.08;100.00;100332.28;108101;1254;73195;-66
2024/02/23 10:18:01;;;;;;;;;;;;;;;8.09;100.00;100338.01;107950;1254;75567;-66
2024/02/23 10:20:29;;;;;;;;;;;;;;;8.13;100.00;100334.34;108116;1255;75405;-67
2024/02/23 10:22:57;;;;;;;;;;;;;;;8.15;100.00;100338.83;108086;1254;63081;-66
2024/02/23 10:25:25;;;;;;;;;;;;;;;8.18;100.00;100339.05;108141;1253;59564;-66
2024/02/23 10:27:53;;;;;;;;;;;;;;;8.22;100.00;100337.48;108147;1253;74048;-66
2024/02/23 10:30:21;;;;;;;;;;;;;;;8.27;100.00;100339.35;108089;1254;71688;-66
2024/02/23 10:32:48;;;;;;;;;;;;;;;8.30;100.00;100338.22;108036;1254;73511;-67
2024/02/23 10:35:16;;;;;;;;;;;;;;;8.35;100.00;100336.00;108004;1256;63896;-67
2024/02/23 10:37:53;;;;;;;;;;;;;;;8.37;100.00;100334.70;108128;1253;60829;-66
2024/02/23 10:40:34;;;;;;;;;;;;;;;8.38;100.00;100338.92;108297;1254;75318;-67
2024/02/23 10:43:11;;;;;;;;;;;;;;;8.39;100.00;100341.55;108098;1258;73656;-66
2024/02/23 10:45:43;;;;;;;;;;;;;;;8.40;100.00;100337.84;108017;1254;72257;-67
2024/02/23 10:48:23;;;;;;;;;;;;;;;8.42;100.00;100335.67;107932;1253;63872;-66
2024/02/23 10:51:02;;;;;;;;;;;;;;;8.43;100.00;100339.64;108241;1253;60162;-67
2024/02/23 10:53:37;;;;;;;;;;;;;;;8.46;100.00;100342.77;108102;1253;73691;-66
2024/02/23 10:56:25;;;;;;;;;;;;;;;8.49;100.00;100345.67;108040;1253;72957;-65
2024/02/23 10:59:10;;;;;;;;;;;;;;;8.51;100.00;100337.42;108158;1254;75649;-65
2024/02/23 11:01:49;;;;;;;;;;;;;;;8.54;100.00;100335.66;108102;1253;60824;-65
2024/02/23 11:04:40;;;;;;;;;;;;;;;8.57;100.00;100341.23;108064;1251;60827;-66
2024/02/23 11:07:31;;;;;;;;;;;;;;;8.60;100.00;100340.74;108126;1253;73137;-66
2024/02/23 11:10:52;;;;;;;;;;;;;;;8.63;100.00;100337.31;108125;1253;71733;-67
2024/02/23 11:13:42;;;;;;;;;;;;;;;8.67;100.00;100337.20;108031;1253;71830;-65
2024/02/23 11:16:25;;;;;;;;;;;;;;;8.73;100.00;100339.44;108124;1254;63743;-65
2024/02/23 11:19:05;;;;;;;;;;;;;;;8.77;100.00;100333.89;108139;1253;60841;-65
2024/02/23 11:21:58;;;;;;;;;;;;;;;8.82;100.00;100338.21;108138;1253;71339;-65
2024/02/23 11:24:51;;;;;;;;;;;;;;;8.87;100.00;100333.05;108153;1253;71691;-66
2024/02/23 11:27:56;;;;;;;;;;;;;;;8.88;100.00;100334.82;108114;1253;73043;-67
2024/02/23 11:30:54;;;;;;;;;;;;;;;8.89;100.00;100333.86;108091;1253;61264;-67
2024/02/23 11:33:56;;;;;;;;;;;;;;;8.92;100.00;100332.79;108070;1253;61018;-66
2024/02/23 11:36:59;;;;;;;;;;;;;;;8.95;100.00;100326.64;108103;1253;74021;-66
2024/02/23 11:40:00;;;;;;;;;;;;;;;8.98;100.00;100327.40;108057;1253;71552;-66
2024/02/23 11:43:01;;;;;;;;;;;;;;;9.01;100.00;100331.58;108191;1253;74981;-65
2024/02/23 11:45:58;;;;;;;;;;;;;;;9.03;100.00;100328.03;108078;1253;60442;-66
2024/02/23 11:48:53;;;;;;;;;;;;;;;9.05;100.00;100328.05;108174;1253;60656;-66
2024/02/23 11:51:56;;;;;;;;;;;;;;;9.03;100.00;100324.46;108143;1258;74735;-67
2024/02/23 11:55:04;;;;;;;;;;;;;;;9.00;100.00;100337.38;108124;1253;73166;-65
2024/02/23 12:01:21;;;;;;;;;;;;;;;8.93;100.00;100339.34;108128;1253;62366;-67
2024/02/23 12:04:23;;;;;;;;;;;;;;;8.92;100.00;100339.17;108155;1253;60315;-67
2024/02/23 12:07:02;;;;;;;;;;;;;;;8.91;100.00;100337.77;108201;1253;74049;-66
2024/02/23 12:09:50;;;;;;;;;;;;;;;8.88;100.00;100338.02;108181;1253;71860;-66
2024/02/23 12:12:29;;;;;;;;;;;;;;;8.86;100.00;100337.77;108147;1257;71597;-66
2024/02/23 12:14:59;;;;;;;;;;;;;;;8.83;100.00;100346.16;108129;1253;63888;-66
2024/02/23 12:17:29;;;;;;;;;;;;;;;8.83;100.00;100346.59;108138;1253;60314;-65
2024/02/23 12:20:11;;;;;;;;;;;;;;;8.82;100.00;100351.12;108226;1253;74163;-65
2024/02/23 12:23:14;;;;;;;;;;;;;;;8.80;100.00;100349.01;107955;1253;73630;-67
2024/02/23 12:29:12;;;;;;;;;;;;;;;8.77;100.00;100354.88;108036;1254;60551;-66
2024/02/23 12:31:41;;;;;;;;;;;;;;;8.77;100.00;100352.91;108091;1254;60353;-67
2024/02/23 12:34:11;;;;;;;;;;;;;;;8.75;100.00;100352.94;108150;1254;74638;-66
2024/02/23 12:36:39;;;;;;;;;;;;;;;8.75;100.00;100352.83;108124;1253;71999;-66
2024/02/23 12:39:07;;;;;;;;;;;;;;;8.74;100.00;100354.05;108157;1254;73638;-66
2024/02/23 12:41:35;;;;;;;;;;;;;;;8.73;100.00;100357.02;108070;1254;60216;-66
2024/02/23 12:44:02;;;;;;;;;;;;;;;8.74;100.00;100354.31;107945;1254;60585;-66
2024/02/23 12:46:30;;;;;;;;;;;;;;;8.73;100.00;100359.30;108144;1258;76108;-66
2024/02/23 12:48:58;;;;;;;;;;;;;;;8.73;100.00;100359.90;107988;1253;73235;-65
2024/02/23 12:51:26;;;;;;;;;;;;;;;8.73;100.00;100359.00;108085;1254;72927;-67
2024/02/23 12:53:54;;;;;;;;;;;;;;;8.73;100.00;100358.20;108084;1254;60786;-67
2024/02/23 12:56:22;;;;;;;;;;;;;;;8.73;100.00;100363.80;107863;1254;62200;-67